createdAt,value
2023-03-04T00:00:01.819Z,2.22
2023-03-04T00:01:01.509Z,2.28
2023-03-04T00:02:01.652Z,2.33
2023-03-04T00:03:01.718Z,2.41
2023-03-04T00:04:01.533Z,2.44
2023-03-04T00:05:01.850Z,2.44
2023-03-04T00:06:01.912Z,2.44
2023-03-04T00:07:02.084Z,2.45
2023-03-04T00:08:02.041Z,2.49
2023-03-04T00:09:02.185Z,2.51
2023-03-04T00:10:02.563Z,2.53
2023-03-04T00:11:02.040Z,2.58
2023-03-04T00:12:02.698Z,2.59
2023-03-04T00:13:02.649Z,2.61
2023-03-04T00:14:02.825Z,2.58
2023-03-04T00:15:02.224Z,2.48
2023-03-04T00:16:02.400Z,2.41
2023-03-04T00:17:01.677Z,2.45
2023-03-04T00:18:01.710Z,2.52
2023-03-04T00:19:02.109Z,2.61
2023-03-04T00:20:02.195Z,2.66
2023-03-04T00:21:01.622Z,2.70
2023-03-04T00:22:02.206Z,2.70
2023-03-04T00:23:02.658Z,2.73
2023-03-04T00:24:02.342Z,2.73
2023-03-04T00:25:02.813Z,2.69
2023-03-04T00:26:02.718Z,2.55
2023-03-04T00:27:01.513Z,2.48
2023-03-04T00:28:01.846Z,2.46
2023-03-04T00:29:01.951Z,2.49
2023-03-04T00:30:01.929Z,2.55
2023-03-04T00:31:01.787Z,2.64
2023-03-04T00:32:01.788Z,2.67
2023-03-04T00:33:02.217Z,2.66
2023-03-04T00:34:01.586Z,2.66
2023-03-04T00:35:02.234Z,2.70
2023-03-04T00:36:01.767Z,2.77
2023-03-04T00:37:02.403Z,2.82
2023-03-04T00:38:02.754Z,2.82
2023-03-04T00:39:02.160Z,2.84
2023-03-04T00:40:02.339Z,2.88
2023-03-04T00:41:02.185Z,2.88
2023-03-04T00:42:01.804Z,2.82
2023-03-04T00:43:01.795Z,2.84
2023-03-04T00:44:02.144Z,2.87
2023-03-04T00:45:02.396Z,2.87
2023-03-04T00:46:01.881Z,2.88
2023-03-04T00:47:01.330Z,2.87
2023-03-04T00:48:01.410Z,2.88
2023-03-04T00:49:01.677Z,2.91
2023-03-04T00:50:01.493Z,2.89
2023-03-04T00:51:01.292Z,2.91
2023-03-04T00:52:01.598Z,2.94
2023-03-04T00:53:01.977Z,2.94
2023-03-04T00:54:01.450Z,2.94
2023-03-04T00:55:01.712Z,2.92
2023-03-04T00:56:01.674Z,2.94
2023-03-04T00:57:02.132Z,2.97
2023-03-04T00:58:02.382Z,2.95
2023-03-04T00:59:02.309Z,2.95
2023-03-04T01:00:02.544Z,2.95
2023-03-04T01:01:02.680Z,2.97
2023-03-04T01:02:03.561Z,3.00
2023-03-04T01:03:03.300Z,3.00
2023-03-04T01:04:03.808Z,3.05
2023-03-04T01:05:03.418Z,3.06
2023-03-04T01:06:03.806Z,3.05
2023-03-04T01:07:02.607Z,3.03
2023-03-04T01:08:03.029Z,3.02
2023-03-04T01:09:02.936Z,3.02
2023-03-04T01:10:02.724Z,3.05
2023-03-04T01:11:02.846Z,3.06
2023-03-04T01:12:03.796Z,3.03
2023-03-04T01:13:03.454Z,3.02
2023-03-04T01:14:03.236Z,3.06
2023-03-04T01:15:03.423Z,3.07
2023-03-04T01:16:03.752Z,3.06
2023-03-04T01:17:03.188Z,3.12
2023-03-04T01:18:02.842Z,3.15
2023-03-04T01:19:02.975Z,3.18
2023-03-04T01:20:02.705Z,3.16
2023-03-04T01:21:03.255Z,3.20
2023-03-04T01:22:02.914Z,3.18
2023-03-04T01:23:02.839Z,3.15
2023-03-04T01:24:03.052Z,3.15
2023-03-04T01:25:02.669Z,3.02
2023-03-04T01:26:02.827Z,2.97
2023-03-04T01:27:02.832Z,2.97
2023-03-04T01:28:02.822Z,2.98
2023-03-04T01:29:02.905Z,3.05
2023-03-04T01:30:02.742Z,3.09
2023-03-04T01:31:03.008Z,3.10
2023-03-04T01:32:02.675Z,3.09
2023-03-04T01:33:02.453Z,3.10
2023-03-04T01:34:02.614Z,3.13
2023-03-04T01:35:02.357Z,3.20
2023-03-04T01:36:02.447Z,3.23
2023-03-04T01:37:02.244Z,3.21
2023-03-04T01:38:02.683Z,3.21
2023-03-04T01:39:02.379Z,3.21
2023-03-04T01:40:02.122Z,3.21
2023-03-04T01:41:02.565Z,3.16
2023-03-04T01:42:02.558Z,3.18
2023-03-04T01:43:02.873Z,3.21
2023-03-04T01:44:02.716Z,3.25
2023-03-04T01:45:02.848Z,3.23
2023-03-04T01:46:02.910Z,3.24
2023-03-04T01:47:02.479Z,3.23
2023-03-04T01:48:02.877Z,3.28
2023-03-04T01:49:02.827Z,3.31
2023-03-04T01:50:02.719Z,3.30
2023-03-04T01:51:02.668Z,3.33
2023-03-04T01:52:03.520Z,3.31
2023-03-04T01:53:03.186Z,3.30
2023-03-04T01:54:02.859Z,3.31
2023-03-04T01:55:02.972Z,3.34
2023-03-04T01:56:03.182Z,3.34
2023-03-04T01:57:02.652Z,3.31
2023-03-04T01:58:02.547Z,3.34
2023-03-04T01:59:02.499Z,3.34
2023-03-04T02:00:02.616Z,3.16
2023-03-04T02:01:02.585Z,3.09
2023-03-04T02:02:02.518Z,3.10
2023-03-04T02:03:02.546Z,3.12
2023-03-04T02:04:03.178Z,3.18
2023-03-04T02:05:03.095Z,3.23
2023-03-04T02:06:02.486Z,3.28
2023-03-04T02:07:02.916Z,3.31
2023-03-04T02:08:03.369Z,3.33
2023-03-04T02:09:02.908Z,3.34
2023-03-04T02:10:03.208Z,3.40
2023-03-04T02:11:02.947Z,3.42
2023-03-04T02:12:03.398Z,3.43
2023-03-04T02:13:02.930Z,3.42
2023-03-04T02:14:03.417Z,3.34
2023-03-04T02:15:03.055Z,3.36
2023-03-04T02:16:03.327Z,3.43
2023-03-04T02:17:03.357Z,3.44
2023-03-04T02:18:03.429Z,3.46
2023-03-04T02:19:03.397Z,3.44
2023-03-04T02:20:02.979Z,3.31
2023-03-04T02:21:03.266Z,3.27
2023-03-04T02:22:03.029Z,3.24
2023-03-04T02:23:02.693Z,3.16
2023-03-04T02:24:02.643Z,3.05
2023-03-04T02:25:02.627Z,3.06
2023-03-04T02:26:03.275Z,3.10
2023-03-04T02:27:03.071Z,3.21
2023-03-04T02:28:03.668Z,3.24
2023-03-04T02:29:03.134Z,3.28
2023-03-04T02:30:03.424Z,3.30
2023-03-04T02:31:03.114Z,3.36
2023-03-04T02:32:02.491Z,3.34
2023-03-04T02:33:02.640Z,3.40
2023-03-04T02:34:02.367Z,3.25
2023-03-04T02:35:02.297Z,3.27
2023-03-04T02:36:02.532Z,3.28
2023-03-04T02:37:03.204Z,3.28
2023-03-04T02:38:02.735Z,3.33
2023-03-04T02:39:03.061Z,3.36
2023-03-04T02:40:03.137Z,3.40
2023-03-04T02:41:02.883Z,3.43
2023-03-04T02:42:03.642Z,3.46
2023-03-04T02:43:03.134Z,3.49
2023-03-04T02:44:03.555Z,3.46
2023-03-04T02:45:03.314Z,3.47
2023-03-04T02:46:03.081Z,3.47
2023-03-04T02:47:02.269Z,3.31
2023-03-04T02:48:02.560Z,3.30
2023-03-04T02:49:02.319Z,3.34
2023-03-04T02:50:02.468Z,3.27
2023-03-04T02:51:02.178Z,3.27
2023-03-04T02:52:02.599Z,3.30
2023-03-04T02:53:02.647Z,3.36
2023-03-04T02:54:02.815Z,3.44
2023-03-04T02:55:02.509Z,3.47
2023-03-04T02:56:03.108Z,3.47
2023-03-04T02:57:02.839Z,3.53
2023-03-04T02:58:02.526Z,3.53
2023-03-04T02:59:02.586Z,3.54
2023-03-04T03:00:02.862Z,3.54
2023-03-04T03:01:02.489Z,3.58
2023-03-04T03:02:03.288Z,3.60
2023-03-04T03:03:02.900Z,3.60
2023-03-04T03:04:02.692Z,3.62
2023-03-04T03:05:02.865Z,3.50
2023-03-04T03:06:03.083Z,3.47
2023-03-04T03:07:02.658Z,3.50
2023-03-04T03:08:02.387Z,3.53
2023-03-04T03:09:02.576Z,3.50
2023-03-04T03:10:02.517Z,3.52
2023-03-04T03:11:02.635Z,3.53
2023-03-04T03:12:02.237Z,3.57
2023-03-04T03:13:02.690Z,3.47
2023-03-04T03:14:02.328Z,3.47
2023-03-04T03:15:02.128Z,3.52
2023-03-04T03:16:02.451Z,3.54
2023-03-04T03:17:03.040Z,3.44
2023-03-04T03:18:02.772Z,3.31
2023-03-04T03:19:02.612Z,3.33
2023-03-04T03:20:03.072Z,3.36
2023-03-04T03:21:02.694Z,3.42
2023-03-04T03:22:02.565Z,3.47
2023-03-04T03:23:02.712Z,3.53
2023-03-04T03:24:02.414Z,3.58
2023-03-04T03:25:02.671Z,3.58
2023-03-04T03:26:02.117Z,3.61
2023-03-04T03:27:02.720Z,3.62
2023-03-04T03:28:02.633Z,3.57
2023-03-04T03:29:02.450Z,3.46
2023-03-04T03:30:02.713Z,3.44
2023-03-04T03:31:03.097Z,3.50
2023-03-04T03:32:02.220Z,3.57
2023-03-04T03:33:01.978Z,3.62
2023-03-04T03:34:01.857Z,3.62
2023-03-04T03:35:01.691Z,3.61
2023-03-04T03:36:01.662Z,3.60
2023-03-04T03:37:02.468Z,3.61
2023-03-04T03:38:02.109Z,3.61
2023-03-04T03:39:02.232Z,3.65
2023-03-04T03:40:02.425Z,3.67
2023-03-04T03:41:02.118Z,3.71
2023-03-04T03:42:02.130Z,3.75
2023-03-04T03:43:01.938Z,3.79
2023-03-04T03:44:02.208Z,3.79
2023-03-04T03:45:02.028Z,3.80
2023-03-04T03:46:01.677Z,3.71
2023-03-04T03:47:02.290Z,3.65
2023-03-04T03:48:01.938Z,3.65
2023-03-04T03:49:02.062Z,3.62
2023-03-04T03:50:02.286Z,3.60
2023-03-04T03:51:02.340Z,3.60
2023-03-04T03:52:01.671Z,3.62
2023-03-04T03:53:01.567Z,3.64
2023-03-04T03:54:01.769Z,3.70
2023-03-04T03:55:02.288Z,3.68
2023-03-04T03:56:01.953Z,3.68
2023-03-04T03:57:01.725Z,3.71
2023-03-04T03:58:02.031Z,3.72
2023-03-04T03:59:01.905Z,3.75
2023-03-04T04:00:02.046Z,3.78
2023-03-04T04:01:01.810Z,3.79
2023-03-04T04:02:03.010Z,3.71
2023-03-04T04:03:02.800Z,3.68
2023-03-04T04:04:02.416Z,3.68
2023-03-04T04:05:02.385Z,3.61
2023-03-04T04:06:02.542Z,3.58
2023-03-04T04:07:03.028Z,3.64
2023-03-04T04:08:02.810Z,3.65
2023-03-04T04:09:02.565Z,3.72
2023-03-04T04:10:03.078Z,3.83
2023-03-04T04:11:02.549Z,3.85
2023-03-04T04:12:03.101Z,3.79
2023-03-04T04:13:02.663Z,3.78
2023-03-04T04:14:02.663Z,3.75
2023-03-04T04:15:02.561Z,3.80
2023-03-04T04:16:03.158Z,3.86
2023-03-04T04:17:02.380Z,3.88
2023-03-04T04:18:02.161Z,3.82
2023-03-04T04:19:02.145Z,3.80
2023-03-04T04:20:02.010Z,3.79
2023-03-04T04:21:02.260Z,3.79
2023-03-04T04:22:02.910Z,3.83
2023-03-04T04:23:02.706Z,3.88
2023-03-04T04:24:02.776Z,3.83
2023-03-04T04:25:02.608Z,3.78
2023-03-04T04:26:02.961Z,3.78
2023-03-04T04:27:02.434Z,3.76
2023-03-04T04:28:02.801Z,3.79
2023-03-04T04:29:02.549Z,3.88
2023-03-04T04:30:02.539Z,3.89
2023-03-04T04:31:02.602Z,3.90
2023-03-04T04:32:02.733Z,3.94
2023-03-04T04:33:02.719Z,3.96
2023-03-04T04:34:02.581Z,3.98
2023-03-04T04:35:02.912Z,4.00
2023-03-04T04:36:02.814Z,4.00
2023-03-04T04:37:02.113Z,4.01
2023-03-04T04:38:02.504Z,3.98
2023-03-04T04:39:02.507Z,3.96
2023-03-04T04:40:02.169Z,3.92
2023-03-04T04:41:02.412Z,3.90
2023-03-04T04:42:02.218Z,3.88
2023-03-04T04:43:02.800Z,3.90
2023-03-04T04:44:02.460Z,3.94
2023-03-04T04:45:02.283Z,3.96
2023-03-04T04:46:02.796Z,3.94
2023-03-04T04:47:01.556Z,3.94
2023-03-04T04:48:01.971Z,3.96
2023-03-04T04:49:01.889Z,3.90
2023-03-04T04:50:01.876Z,3.94
2023-03-04T04:51:01.831Z,3.92
2023-03-04T04:52:02.240Z,3.86
2023-03-04T04:53:01.990Z,3.86
2023-03-04T04:54:02.180Z,3.86
2023-03-04T04:55:01.652Z,3.89
2023-03-04T04:56:01.967Z,3.89
2023-03-04T04:57:02.432Z,3.79
2023-03-04T04:58:02.339Z,3.67
2023-03-04T04:59:02.574Z,3.58
2023-03-04T05:00:02.756Z,3.50
2023-03-04T05:01:02.882Z,3.58
2023-03-04T05:02:01.643Z,3.64
2023-03-04T05:03:01.648Z,3.76
2023-03-04T05:04:01.800Z,3.82
2023-03-04T05:05:01.927Z,3.78
2023-03-04T05:06:01.916Z,3.68
2023-03-04T05:07:01.841Z,3.60
2023-03-04T05:08:02.008Z,3.57
2023-03-04T05:09:02.197Z,3.58
2023-03-04T05:10:01.912Z,3.62
2023-03-04T05:11:01.906Z,3.70
2023-03-04T05:12:02.571Z,3.79
2023-03-04T05:13:02.708Z,3.83
2023-03-04T05:14:02.417Z,3.89
2023-03-04T05:15:02.275Z,3.90
2023-03-04T05:16:02.667Z,3.90
2023-03-04T05:17:01.736Z,3.85
2023-03-04T05:18:01.805Z,3.83
2023-03-04T05:19:02.276Z,3.83
2023-03-04T05:20:02.008Z,3.83
2023-03-04T05:21:02.174Z,3.86
2023-03-04T05:22:02.270Z,3.88
2023-03-04T05:23:02.014Z,3.92
2023-03-04T05:24:02.031Z,3.94
2023-03-04T05:25:01.858Z,3.96
2023-03-04T05:26:01.810Z,3.94
2023-03-04T05:27:02.005Z,3.97
2023-03-04T05:28:01.984Z,3.97
2023-03-04T05:29:02.043Z,3.97
2023-03-04T05:30:01.764Z,3.97
2023-03-04T05:31:02.124Z,4.01
2023-03-04T05:32:02.431Z,4.00
2023-03-04T05:33:02.443Z,4.03
2023-03-04T05:34:02.503Z,4.01
2023-03-04T05:35:02.644Z,4.04
2023-03-04T05:36:02.162Z,4.04
2023-03-04T05:37:01.709Z,4.07
2023-03-04T05:38:01.973Z,4.04
2023-03-04T05:39:01.916Z,4.06
2023-03-04T05:40:02.047Z,4.07
2023-03-04T05:41:02.173Z,4.07
2023-03-04T05:42:02.216Z,4.06
2023-03-04T05:43:02.051Z,4.06
2023-03-04T05:44:01.931Z,4.06
2023-03-04T05:45:02.058Z,4.01
2023-03-04T05:46:02.199Z,4.01
2023-03-04T05:47:02.355Z,4.03
2023-03-04T05:48:02.093Z,4.07
2023-03-04T05:49:02.309Z,4.08
2023-03-04T05:50:02.445Z,4.12
2023-03-04T05:51:02.326Z,4.12
2023-03-04T05:52:01.913Z,4.12
2023-03-04T05:53:01.899Z,4.10
2023-03-04T05:54:01.628Z,4.06
2023-03-04T05:55:01.332Z,4.06
2023-03-04T05:56:01.570Z,4.06
2023-03-04T05:57:02.062Z,4.03
2023-03-04T05:58:01.949Z,4.01
2023-03-04T05:59:02.200Z,4.04
2023-03-04T06:00:01.683Z,4.04
2023-03-04T06:01:02.032Z,4.10
2023-03-04T06:02:02.553Z,4.14
2023-03-04T06:03:02.840Z,4.16
2023-03-04T06:04:02.369Z,4.19
2023-03-04T06:05:02.471Z,4.15
2023-03-04T06:06:02.890Z,4.15
2023-03-04T06:07:03.309Z,4.08
2023-03-04T06:08:03.258Z,4.06
2023-03-04T06:09:03.058Z,3.96
2023-03-04T06:10:03.254Z,3.79
2023-03-04T06:11:03.392Z,3.72
2023-03-04T06:12:02.636Z,3.79
2023-03-04T06:13:02.416Z,3.85
2023-03-04T06:14:02.517Z,3.92
2023-03-04T06:15:02.513Z,4.04
2023-03-04T06:16:02.470Z,4.10
2023-03-04T06:17:02.972Z,4.12
2023-03-04T06:18:03.322Z,4.12
2023-03-04T06:19:03.014Z,4.16
2023-03-04T06:20:03.193Z,4.18
2023-03-04T06:21:02.810Z,4.15
2023-03-04T06:22:01.817Z,4.12
2023-03-04T06:23:02.394Z,4.14
2023-03-04T06:24:01.934Z,4.10
2023-03-04T06:25:02.478Z,4.14
2023-03-04T06:26:02.092Z,4.15
2023-03-04T06:27:02.585Z,4.18
2023-03-04T06:28:02.334Z,4.22
2023-03-04T06:29:02.454Z,4.22
2023-03-04T06:30:02.686Z,4.21
2023-03-04T06:31:02.753Z,4.21
2023-03-04T06:32:02.691Z,4.21
2023-03-04T06:33:02.692Z,4.26
2023-03-04T06:34:03.051Z,4.33
2023-03-04T06:35:02.414Z,4.34
2023-03-04T06:36:03.051Z,4.32
2023-03-04T06:37:02.055Z,4.32
2023-03-04T06:38:02.187Z,4.32
2023-03-04T06:39:01.754Z,4.34
2023-03-04T06:40:01.881Z,4.33
2023-03-04T06:41:02.040Z,4.36
2023-03-04T06:42:02.316Z,4.36
2023-03-04T06:43:02.231Z,4.36
2023-03-04T06:44:01.960Z,4.39
2023-03-04T06:45:01.922Z,4.37
2023-03-04T06:46:02.352Z,4.34
2023-03-04T06:47:02.399Z,4.36
2023-03-04T06:48:02.433Z,4.37
2023-03-04T06:49:02.591Z,4.42
2023-03-04T06:50:02.681Z,4.44
2023-03-04T06:51:02.579Z,4.43
2023-03-04T06:52:02.340Z,4.42
2023-03-04T06:53:02.459Z,4.43
2023-03-04T06:54:02.746Z,4.43
2023-03-04T06:55:02.440Z,4.47
2023-03-04T06:56:02.881Z,4.47
2023-03-04T06:57:02.293Z,4.52
2023-03-04T06:58:02.335Z,4.47
2023-03-04T06:59:02.240Z,4.47
2023-03-04T07:00:01.826Z,4.44
2023-03-04T07:01:02.350Z,4.47
2023-03-04T07:02:02.114Z,4.47
2023-03-04T07:03:02.039Z,4.50
2023-03-04T07:04:02.069Z,4.50
2023-03-04T07:05:02.181Z,4.52
2023-03-04T07:06:02.455Z,4.54
2023-03-04T07:07:02.421Z,4.55
2023-03-04T07:08:02.669Z,4.55
2023-03-04T07:09:02.605Z,4.58
2023-03-04T07:10:02.576Z,4.61
2023-03-04T07:11:02.358Z,4.67
2023-03-04T07:12:01.795Z,4.65
2023-03-04T07:13:01.804Z,4.65
2023-03-04T07:14:02.303Z,4.64
2023-03-04T07:15:01.966Z,4.62
2023-03-04T07:16:02.074Z,4.64
2023-03-04T07:17:02.402Z,4.69
2023-03-04T07:18:02.447Z,4.62
2023-03-04T07:19:02.103Z,4.62
2023-03-04T07:20:02.186Z,4.61
2023-03-04T07:21:01.823Z,4.62
2023-03-04T07:22:02.086Z,4.67
2023-03-04T07:23:02.022Z,4.67
2023-03-04T07:24:02.418Z,4.64
2023-03-04T07:25:02.479Z,4.67
2023-03-04T07:26:01.842Z,4.67
2023-03-04T07:27:02.363Z,4.67
2023-03-04T07:28:02.269Z,4.67
2023-03-04T07:29:02.202Z,4.69
2023-03-04T07:30:02.183Z,4.70
2023-03-04T07:31:02.327Z,4.72
2023-03-04T07:32:02.695Z,4.76
2023-03-04T07:33:02.397Z,4.75
2023-03-04T07:34:02.238Z,4.76
2023-03-04T07:35:02.609Z,4.79
2023-03-04T07:36:02.252Z,4.79
2023-03-04T07:37:01.958Z,4.80
2023-03-04T07:38:01.868Z,4.83
2023-03-04T07:39:02.209Z,4.84
2023-03-04T07:40:01.748Z,4.89
2023-03-04T07:41:01.877Z,4.92
2023-03-04T07:42:03.008Z,4.91
2023-03-04T07:43:02.928Z,4.92
2023-03-04T07:44:02.332Z,4.94
2023-03-04T07:45:02.555Z,4.96
2023-03-04T07:46:02.870Z,4.99
2023-03-04T07:47:01.705Z,5.02
2023-03-04T07:48:01.568Z,4.98
2023-03-04T07:49:01.422Z,4.95
2023-03-04T07:50:01.616Z,4.94
2023-03-04T07:51:01.649Z,4.94
2023-03-04T07:52:02.476Z,4.99
2023-03-04T07:53:02.386Z,5.05
2023-03-04T07:54:02.218Z,5.05
2023-03-04T07:55:01.789Z,5.07
2023-03-04T07:56:02.790Z,5.07
2023-03-04T07:57:02.020Z,5.05
2023-03-04T07:58:02.465Z,5.05
2023-03-04T07:59:02.194Z,5.09
2023-03-04T08:00:02.469Z,5.07
2023-03-04T08:01:02.420Z,5.09
2023-03-04T08:02:03.537Z,5.12
2023-03-04T08:03:03.572Z,5.17
2023-03-04T08:04:03.541Z,5.16
2023-03-04T08:05:03.297Z,5.19
2023-03-04T08:06:03.188Z,5.19
2023-03-04T08:07:03.762Z,5.23
2023-03-04T08:08:03.736Z,5.25
2023-03-04T08:09:03.647Z,5.30
2023-03-04T08:10:03.258Z,5.32
2023-03-04T08:11:03.367Z,5.35
2023-03-04T08:12:02.676Z,5.38
2023-03-04T08:13:02.688Z,5.40
2023-03-04T08:14:03.096Z,5.43
2023-03-04T08:15:02.832Z,5.43
2023-03-04T08:16:02.857Z,5.43
2023-03-04T08:17:03.483Z,5.45
2023-03-04T08:18:03.653Z,5.48
2023-03-04T08:19:03.356Z,5.52
2023-03-04T08:20:03.657Z,5.55
2023-03-04T08:21:03.408Z,5.56
2023-03-04T08:22:02.527Z,5.57
2023-03-04T08:23:02.844Z,5.60
2023-03-04T08:24:02.385Z,5.66
2023-03-04T08:25:02.363Z,5.68
2023-03-04T08:26:02.939Z,5.71
2023-03-04T08:27:03.073Z,5.73
2023-03-04T08:28:02.662Z,5.75
2023-03-04T08:29:02.727Z,5.74
2023-03-04T08:30:02.938Z,5.71
2023-03-04T08:31:02.664Z,5.75
2023-03-04T08:32:02.806Z,5.78
2023-03-04T08:33:03.206Z,5.82
2023-03-04T08:34:03.290Z,5.85
2023-03-04T08:35:03.241Z,5.86
2023-03-04T08:36:03.027Z,5.88
2023-03-04T08:37:02.650Z,5.91
2023-03-04T08:38:02.656Z,5.92
2023-03-04T08:39:02.803Z,5.92
2023-03-04T08:40:02.655Z,5.93
2023-03-04T08:41:02.469Z,5.95
2023-03-04T08:42:02.775Z,5.93
2023-03-04T08:43:02.763Z,5.95
2023-03-04T08:44:03.307Z,5.96
2023-03-04T08:45:02.852Z,6.03
2023-03-04T08:46:03.216Z,6.07
2023-03-04T08:47:02.456Z,6.10
2023-03-04T08:48:02.377Z,6.11
2023-03-04T08:49:02.702Z,6.14
2023-03-04T08:50:02.295Z,6.14
2023-03-04T08:51:02.233Z,6.16
2023-03-04T08:52:02.834Z,6.19
2023-03-04T08:53:02.685Z,6.22
2023-03-04T08:54:02.661Z,6.26
2023-03-04T08:55:02.329Z,6.21
2023-03-04T08:56:02.325Z,6.19
2023-03-04T08:57:02.889Z,6.18
2023-03-04T08:58:02.645Z,6.19
2023-03-04T08:59:02.851Z,6.26
2023-03-04T09:00:02.978Z,6.29
2023-03-04T09:01:02.682Z,6.33
2023-03-04T09:02:03.132Z,6.38
2023-03-04T09:03:03.173Z,6.41
2023-03-04T09:04:02.943Z,6.43
2023-03-04T09:05:02.815Z,6.41
2023-03-04T09:06:03.104Z,6.40
2023-03-04T09:07:02.683Z,6.44
2023-03-04T09:08:02.456Z,6.46
2023-03-04T09:09:02.283Z,6.47
2023-03-04T09:10:02.760Z,6.48
2023-03-04T09:11:02.466Z,6.51
2023-03-04T09:12:03.191Z,6.53
2023-03-04T09:13:02.798Z,6.58
2023-03-04T09:14:02.835Z,6.63
2023-03-04T09:15:11.053Z,6.62
2023-03-04T09:16:02.803Z,6.62
2023-03-04T09:17:02.175Z,6.62
2023-03-04T09:18:02.022Z,6.65
2023-03-04T09:19:01.946Z,6.71
2023-03-04T09:20:04.413Z,6.77
2023-03-04T09:21:02.521Z,6.73
2023-03-04T09:22:02.532Z,6.72
2023-03-04T09:23:02.818Z,6.68
2023-03-04T09:24:02.623Z,6.69
2023-03-04T09:25:02.616Z,6.73
2023-03-04T09:26:02.726Z,6.76
2023-03-04T09:27:02.702Z,6.79
2023-03-04T09:28:02.601Z,6.79
2023-03-04T09:29:02.983Z,6.84
2023-03-04T09:30:02.401Z,6.87
2023-03-04T09:31:02.782Z,6.87
2023-03-04T09:32:02.055Z,6.87
2023-03-04T09:33:02.192Z,6.94
2023-03-04T09:34:02.348Z,6.95
2023-03-04T09:35:02.423Z,6.95
2023-03-04T09:36:02.295Z,6.98
2023-03-04T09:37:02.525Z,6.97
2023-03-04T09:38:02.722Z,6.99
2023-03-04T09:39:02.455Z,6.99
2023-03-04T09:40:02.815Z,6.99
2023-03-04T09:41:02.818Z,7.01
2023-03-04T09:42:02.801Z,7.05
2023-03-04T09:43:02.383Z,7.09
2023-03-04T09:44:02.360Z,7.12
2023-03-04T09:45:02.548Z,7.19
2023-03-04T09:46:02.968Z,7.22
2023-03-04T09:47:02.034Z,7.24
2023-03-04T09:48:02.456Z,7.31
2023-03-04T09:49:02.614Z,7.35
2023-03-04T09:50:02.339Z,7.40
2023-03-04T09:51:02.086Z,7.47
2023-03-04T09:52:02.512Z,7.47
2023-03-04T09:53:02.138Z,7.41
2023-03-04T09:54:02.523Z,7.40
2023-03-04T09:55:04.667Z,7.42
2023-03-04T09:56:02.688Z,7.44
2023-03-04T09:57:02.720Z,7.44
2023-03-04T09:58:02.494Z,7.50
2023-03-04T09:59:02.760Z,7.56
2023-03-04T10:00:02.742Z,7.62
2023-03-04T10:01:05.132Z,7.71
2023-03-04T10:02:02.884Z,7.74
2023-03-04T10:03:02.532Z,7.71
2023-03-04T10:04:02.926Z,7.60
2023-03-04T10:05:02.940Z,7.56
2023-03-04T10:06:02.670Z,7.53
2023-03-04T10:07:01.613Z,7.60
2023-03-04T10:08:01.733Z,7.62
2023-03-04T10:09:01.759Z,7.66
2023-03-04T10:10:01.744Z,7.60
2023-03-04T10:11:02.211Z,7.56
2023-03-04T10:12:02.122Z,7.53
2023-03-04T10:13:02.013Z,7.58
2023-03-04T10:14:02.186Z,7.63
2023-03-04T10:15:02.409Z,7.69
2023-03-04T10:16:02.352Z,7.75
2023-03-04T10:17:02.745Z,7.81
2023-03-04T10:18:02.837Z,7.87
2023-03-04T10:19:02.767Z,7.97
2023-03-04T10:20:02.554Z,8.04
2023-03-04T10:21:02.648Z,8.17
2023-03-04T10:22:01.754Z,8.21
2023-03-04T10:23:01.667Z,8.30
2023-03-04T10:24:01.818Z,8.35
2023-03-04T10:25:01.887Z,8.48
2023-03-04T10:26:01.781Z,8.60
2023-03-04T10:27:01.899Z,8.72
2023-03-04T10:28:01.887Z,8.72
2023-03-04T10:29:02.196Z,8.76
2023-03-04T10:30:02.013Z,8.86
2023-03-04T10:31:01.809Z,8.94
2023-03-04T10:32:01.687Z,9.05
2023-03-04T10:33:01.997Z,9.20
2023-03-04T10:34:01.507Z,9.28
2023-03-04T10:35:01.871Z,9.38
2023-03-04T10:36:01.891Z,9.42
2023-03-04T10:37:01.705Z,9.49
2023-03-04T10:38:01.590Z,9.52
2023-03-04T10:39:01.864Z,9.48
2023-03-04T10:40:01.487Z,9.30
2023-03-04T10:41:01.578Z,9.30
2023-03-04T10:42:02.151Z,9.27
2023-03-04T10:43:02.086Z,9.27
2023-03-04T10:44:02.076Z,9.27
2023-03-04T10:45:01.858Z,9.28
2023-03-04T10:46:02.271Z,9.30
2023-03-04T10:47:02.132Z,9.27
2023-03-04T10:48:02.714Z,9.20
2023-03-04T10:49:02.411Z,9.12
2023-03-04T10:50:02.476Z,9.05
2023-03-04T10:51:02.647Z,9.10
2023-03-04T10:52:02.359Z,9.06
2023-03-04T10:53:02.704Z,9.12
2023-03-04T10:54:02.789Z,9.15
2023-03-04T10:55:02.577Z,9.13
2023-03-04T10:56:02.478Z,9.13
2023-03-04T10:57:01.770Z,9.13
2023-03-04T10:58:01.734Z,9.06
2023-03-04T10:59:01.765Z,9.09
2023-03-04T11:00:01.928Z,9.02
2023-03-04T11:01:01.747Z,8.97
2023-03-04T11:02:02.089Z,8.93
2023-03-04T11:03:02.089Z,8.96
2023-03-04T11:04:02.045Z,8.97
2023-03-04T11:05:02.286Z,9.05
2023-03-04T11:06:01.928Z,9.05
2023-03-04T11:07:02.584Z,9.05
2023-03-04T11:08:02.544Z,9.06
2023-03-04T11:09:02.772Z,9.09
2023-03-04T11:10:02.438Z,9.09
2023-03-04T11:11:02.748Z,9.05
2023-03-04T11:12:02.884Z,8.97
2023-03-04T11:13:03.267Z,8.91
2023-03-04T11:14:02.975Z,8.83
2023-03-04T11:15:02.924Z,8.79
2023-03-04T11:16:02.919Z,8.75
2023-03-04T11:17:01.838Z,8.62
2023-03-04T11:18:01.830Z,8.58
2023-03-04T11:19:01.684Z,8.60
2023-03-04T11:20:02.306Z,8.62
2023-03-04T11:21:02.015Z,8.58
2023-03-04T11:22:02.274Z,8.54
2023-03-04T11:23:04.479Z,8.55
2023-03-04T11:24:02.341Z,8.51
2023-03-04T11:25:02.552Z,8.47
2023-03-04T11:26:02.438Z,8.47
2023-03-04T11:27:02.394Z,8.47
2023-03-04T11:28:02.635Z,8.47
2023-03-04T11:29:02.398Z,8.48
2023-03-04T11:30:02.416Z,8.50
2023-03-04T11:31:02.713Z,8.51
2023-03-04T11:32:02.862Z,8.54
2023-03-04T11:33:02.690Z,8.55
2023-03-04T11:34:02.648Z,8.57
2023-03-04T11:35:02.921Z,8.58
2023-03-04T11:36:02.867Z,8.62
2023-03-04T11:37:02.233Z,8.68
2023-03-04T11:38:02.478Z,8.69
2023-03-04T11:39:01.977Z,8.72
2023-03-04T11:40:02.427Z,8.72
2023-03-04T11:41:02.433Z,8.73
2023-03-04T11:42:02.789Z,8.71
2023-03-04T11:43:02.724Z,8.75
2023-03-04T11:44:02.660Z,8.83
2023-03-04T11:45:02.506Z,8.93
2023-03-04T11:46:03.129Z,8.97
2023-03-04T11:47:02.555Z,9.04
2023-03-04T11:48:02.456Z,9.06
2023-03-04T11:49:02.733Z,9.05
2023-03-04T11:50:02.754Z,9.02
2023-03-04T11:51:02.248Z,9.02
2023-03-04T11:52:02.073Z,9.04
2023-03-04T11:53:01.862Z,9.09
2023-03-04T11:54:01.734Z,9.15
2023-03-04T11:55:02.048Z,9.20
2023-03-04T11:56:01.643Z,9.25
2023-03-04T11:57:02.488Z,9.35
2023-03-04T11:58:02.580Z,9.46
2023-03-04T11:59:02.457Z,9.50
2023-03-04T12:00:02.506Z,9.53
2023-03-04T12:01:02.630Z,9.52
2023-03-04T12:02:03.338Z,9.53
2023-03-04T12:03:03.507Z,9.53
2023-03-04T12:04:03.654Z,9.50
2023-03-04T12:05:03.628Z,9.52
2023-03-04T12:06:03.659Z,9.48
2023-03-04T12:07:02.713Z,9.48
2023-03-04T12:08:02.612Z,9.45
2023-03-04T12:09:02.805Z,9.40
2023-03-04T12:10:02.917Z,9.39
2023-03-04T12:11:02.568Z,9.38
2023-03-04T12:12:03.129Z,9.39
2023-03-04T12:13:03.151Z,9.35
2023-03-04T12:14:02.953Z,9.30
2023-03-04T12:15:02.816Z,9.23
2023-03-04T12:16:02.794Z,9.13
2023-03-04T12:17:03.141Z,9.13
2023-03-04T12:18:02.921Z,9.13
2023-03-04T12:19:02.981Z,9.13
2023-03-04T12:20:02.978Z,9.05
2023-03-04T12:21:03.251Z,9.01
2023-03-04T12:22:02.816Z,8.99
2023-03-04T12:23:02.699Z,9.01
2023-03-04T12:24:02.347Z,8.97
2023-03-04T12:25:02.802Z,8.99
2023-03-04T12:26:02.540Z,9.01
2023-03-04T12:27:03.066Z,9.05
2023-03-04T12:28:02.830Z,9.05
2023-03-04T12:29:03.202Z,9.01
2023-03-04T12:30:02.995Z,8.97
2023-03-04T12:31:03.001Z,8.94
2023-03-04T12:32:03.610Z,8.91
2023-03-04T12:33:03.351Z,8.93
2023-03-04T12:34:03.339Z,8.84
2023-03-04T12:35:03.335Z,8.75
2023-03-04T12:36:03.512Z,8.75
2023-03-04T12:37:03.592Z,8.75
2023-03-04T12:38:03.224Z,8.75
2023-03-04T12:39:03.231Z,8.76
2023-03-04T12:40:03.210Z,8.79
2023-03-04T12:41:03.447Z,8.84
2023-03-04T12:42:02.728Z,8.87
2023-03-04T12:43:02.456Z,8.88
2023-03-04T12:44:02.457Z,8.87
2023-03-04T12:45:02.745Z,8.84
2023-03-04T12:46:02.791Z,8.84
2023-03-04T12:47:02.923Z,8.87
2023-03-04T12:48:02.908Z,8.81
2023-03-04T12:49:02.819Z,8.78
2023-03-04T12:50:02.550Z,8.75
2023-03-04T12:51:02.813Z,8.72
2023-03-04T12:52:03.080Z,8.72
2023-03-04T12:53:02.690Z,8.75
2023-03-04T12:54:02.544Z,8.78
2023-03-04T12:55:02.998Z,8.79
2023-03-04T12:56:02.622Z,8.79
2023-03-04T12:57:03.148Z,8.81
2023-03-04T12:58:02.682Z,8.86
2023-03-04T12:59:03.219Z,8.87
2023-03-04T13:00:02.677Z,8.86
2023-03-04T13:01:02.798Z,8.86
2023-03-04T13:02:04.997Z,8.72
2023-03-04T13:03:02.578Z,8.68
2023-03-04T13:04:02.332Z,8.69
2023-03-04T13:05:02.186Z,8.73
2023-03-04T13:06:02.094Z,8.72
2023-03-04T13:07:02.920Z,8.73
2023-03-04T13:08:02.680Z,8.71
2023-03-04T13:09:02.448Z,8.71
2023-03-04T13:10:02.457Z,8.73
2023-03-04T13:11:02.786Z,8.75
2023-03-04T13:12:01.575Z,8.73
2023-03-04T13:13:01.857Z,8.73
2023-03-04T13:14:01.653Z,8.75
2023-03-04T13:15:01.593Z,8.72
2023-03-04T13:16:02.241Z,8.63
2023-03-04T13:17:02.276Z,8.57
2023-03-04T13:18:02.782Z,8.51